This is the latest recevied weather packets stored in our database for station/object KN6RO-14. If no packets are shown the sender has not sent any weather packets the latest 10 day(s).
| Time | Temp. | Humidity | Pressure | Rain* | Wind** | Luminosity | Snow |
|---|---|---|---|---|---|---|---|
| 1777598699 | 14.44° C | 59% | 1011.3 hPa | 0 mm | - | - | - |
| 1777598660 | 14.44° C | 59% | 1011.3 hPa | 0 mm | - | - | - |
| 1777596860 | 14.44° C | 60% | 1011.3 hPa | 0 mm | - | - | - |
| 1777595060 | 14.44° C | 61% | 1011.1 hPa | 0 mm | - | - | - |
| 1777593260 | 15° C | 58% | 1010.7 hPa | 0 mm | - | - | - |
| 1777591460 | 15.56° C | 58% | 1010.4 hPa | 0 mm | - | - | - |
| 1777589661 | 16.11° C | 54% | 1010.5 hPa | 0 mm | - | - | - |
| 1777587861 | 16.67° C | 48% | 1010.6 hPa | 0 mm | - | - | - |
| 1777586061 | 17.22° C | 52% | 1010.2 hPa | 0 mm | - | - | - |
| 1777584261 | 17.78° C | 50% | 1010.2 hPa | 0 mm | - | - | - |
| 1777582461 | 18.33° C | 53% | 1010 hPa | 0 mm | - | - | - |
| 1777580661 | 18.33° C | 48% | 1010.4 hPa | 0 mm | - | - | - |
| 1777578861 | 18.33° C | 46% | 1010.6 hPa | 0 mm | - | - | - |
| 1777577514 | 20° C | 72% | 1009 hPa | 0 mm | - | - | - |
| 1777577061 | 18.89° C | 48% | 1010.7 hPa | 0 mm | - | - | - |
| 1777575261 | 18.89° C | 51% | 1010.3 hPa | 0 mm | - | - | - |
| 1777573461 | 18.89° C | 50% | 1010.3 hPa | 0 mm | - | - | - |
| 1777571661 | 18.89° C | 50% | 1010.6 hPa | 0 mm | - | - | - |
| 1777569861 | 18.33° C | 59% | 1010.8 hPa | 0 mm | - | - | - |
| 1777568061 | 18.33° C | 60% | 1010.8 hPa | 0 mm | - | - | - |
| 1777566261 | 17.78° C | 61% | 1011 hPa | 0 mm | - | - | - |
| 1777564461 | 17.22° C | 67% | 1010.9 hPa | 0 mm | - | - | - |
| 1777562661 | 16.67° C | 73% | 1010.8 hPa | 0 mm | - | - | - |
| 1777560861 | 16.11° C | 78% | 1010.4 hPa | 0 mm | - | - | - |
| 1777559061 | 15° C | 77% | 1010.3 hPa | 0 mm | - | - | - |
* Rain latest hour (hover to see other rain measurements)
** Current wind speed in m/s (hover to see current wind gust speed)